sensor_id;sensor_type;location;lat;lon;timestamp;P1;durP1;ratioP1;P2;durP2;ratioP2
55545;SDS011;44768;50.298;127.520;2023-03-03T00:01:25;24.30;;;4.75;;
55545;SDS011;44768;50.298;127.520;2023-03-03T00:06:27;15.48;;;4.25;;
55545;SDS011;44768;50.298;127.520;2023-03-03T00:11:30;11.52;;;3.80;;
55545;SDS011;44768;50.298;127.520;2023-03-03T00:16:34;11.43;;;3.95;;
55545;SDS011;44768;50.298;127.520;2023-03-03T00:21:41;11.23;;;3.45;;
55545;SDS011;44768;50.298;127.520;2023-03-03T00:26:43;13.73;;;3.70;;
55545;SDS011;44768;50.298;127.520;2023-03-03T00:31:45;9.57;;;3.78;;
55545;SDS011;44768;50.298;127.520;2023-03-03T00:36:46;9.30;;;3.53;;
55545;SDS011;44768;50.298;127.520;2023-03-03T00:41:50;8.55;;;3.15;;
55545;SDS011;44768;50.298;127.520;2023-03-03T00:46:51;10.73;;;3.58;;
55545;SDS011;44768;50.298;127.520;2023-03-03T00:51:54;7.30;;;3.22;;
55545;SDS011;44768;50.298;127.520;2023-03-03T00:56:55;11.05;;;3.47;;
55545;SDS011;44768;50.298;127.520;2023-03-03T01:06:57;7.75;;;3.03;;
55545;SDS011;44768;50.298;127.520;2023-03-03T01:16:59;6.00;;;3.00;;
55545;SDS011;44768;50.298;127.520;2023-03-03T01:22:01;7.97;;;2.60;;
55545;SDS011;44768;50.298;127.520;2023-03-03T01:27:03;4.20;;;2.90;;
55545;SDS011;44768;50.298;127.520;2023-03-03T01:32:04;9.68;;;2.90;;
55545;SDS011;44768;50.298;127.520;2023-03-03T01:42:06;9.40;;;3.00;;
55545;SDS011;44768;50.298;127.520;2023-03-03T01:47:09;7.00;;;2.80;;
55545;SDS011;44768;50.298;127.520;2023-03-03T01:52:24;14.07;;;5.00;;
55545;SDS011;44768;50.298;127.520;2023-03-03T01:57:29;101.95;;;46.13;;
55545;SDS011;44768;50.298;127.520;2023-03-03T02:02:32;54.03;;;23.92;;
55545;SDS011;44768;50.298;127.520;2023-03-03T02:07:34;34.53;;;16.88;;
55545;SDS011;44768;50.298;127.520;2023-03-03T02:12:40;23.85;;;13.35;;
55545;SDS011;44768;50.298;127.520;2023-03-03T02:18:04;25.33;;;13.02;;
55545;SDS011;44768;50.298;127.520;2023-03-03T02:28:10;20.48;;;9.77;;
55545;SDS011;44768;50.298;127.520;2023-03-03T02:33:11;17.05;;;9.48;;
55545;SDS011;44768;50.298;127.520;2023-03-03T02:38:26;15.30;;;8.05;;
55545;SDS011;44768;50.298;127.520;2023-03-03T02:43:31;15.52;;;8.10;;
55545;SDS011;44768;50.298;127.520;2023-03-03T02:48:33;16.98;;;9.02;;
55545;SDS011;44768;50.298;127.520;2023-03-03T02:53:35;16.23;;;7.75;;
55545;SDS011;44768;50.298;127.520;2023-03-03T02:58:37;17.48;;;7.88;;
55545;SDS011;44768;50.298;127.520;2023-03-03T03:03:38;15.45;;;7.35;;
55545;SDS011;44768;50.298;127.520;2023-03-03T03:08:40;15.13;;;7.38;;
55545;SDS011;44768;50.298;127.520;2023-03-03T03:13:41;12.95;;;7.10;;
55545;SDS011;44768;50.298;127.520;2023-03-03T03:18:42;13.65;;;6.90;;
55545;SDS011;44768;50.298;127.520;2023-03-03T03:23:43;14.07;;;7.65;;
55545;SDS011;44768;50.298;127.520;2023-03-03T03:28:45;12.20;;;7.13;;
55545;SDS011;44768;50.298;127.520;2023-03-03T03:33:46;12.45;;;7.30;;
55545;SDS011;44768;50.298;127.520;2023-03-03T03:38:48;12.10;;;7.28;;
55545;SDS011;44768;50.298;127.520;2023-03-03T03:43:54;15.38;;;6.93;;
55545;SDS011;44768;50.298;127.520;2023-03-03T03:48:59;12.13;;;6.95;;
55545;SDS011;44768;50.298;127.520;2023-03-03T03:54:01;16.40;;;6.50;;
55545;SDS011;44768;50.298;127.520;2023-03-03T03:59:04;14.65;;;7.63;;
55545;SDS011;44768;50.298;127.520;2023-03-03T04:04:05;15.45;;;6.10;;
55545;SDS011;44768;50.298;127.520;2023-03-03T04:09:07;15.10;;;6.97;;
55545;SDS011;44768;50.298;127.520;2023-03-03T04:19:17;11.77;;;6.47;;
55545;SDS011;44768;50.298;127.520;2023-03-03T04:24:18;20.58;;;6.50;;
55545;SDS011;44768;50.298;127.520;2023-03-03T04:29:20;17.80;;;6.82;;
55545;SDS011;44768;50.298;127.520;2023-03-03T04:34:21;19.20;;;6.60;;
55545;SDS011;44768;50.298;127.520;2023-03-03T04:39:22;12.50;;;5.80;;
55545;SDS011;44768;50.298;127.520;2023-03-03T04:44:23;12.90;;;5.93;;
55545;SDS011;44768;50.298;127.520;2023-03-03T04:49:24;14.63;;;6.40;;
55545;SDS011;44768;50.298;127.520;2023-03-03T04:54:26;14.23;;;6.53;;
55545;SDS011;44768;50.298;127.520;2023-03-03T04:59:28;13.07;;;5.72;;
55545;SDS011;44768;50.298;127.520;2023-03-03T05:04:29;13.77;;;6.60;;
55545;SDS011;44768;50.298;127.520;2023-03-03T05:09:31;14.15;;;5.97;;
55545;SDS011;44768;50.298;127.520;2023-03-03T05:14:32;15.00;;;5.93;;
55545;SDS011;44768;50.298;127.520;2023-03-03T05:19:33;11.70;;;5.85;;
55545;SDS011;44768;50.298;127.520;2023-03-03T05:24:34;8.43;;;5.38;;
55545;SDS011;44768;50.298;127.520;2023-03-03T05:29:36;10.20;;;5.40;;
55545;SDS011;44768;50.298;127.520;2023-03-03T05:34:37;10.55;;;4.78;;
55545;SDS011;44768;50.298;127.520;2023-03-03T05:39:38;7.22;;;4.93;;
55545;SDS011;44768;50.298;127.520;2023-03-03T05:44:39;25.13;;;5.20;;
55545;SDS011;44768;50.298;127.520;2023-03-03T05:49:40;8.05;;;4.47;;
55545;SDS011;44768;50.298;127.520;2023-03-03T05:54:42;7.75;;;4.55;;
55545;SDS011;44768;50.298;127.520;2023-03-03T05:59:44;7.20;;;4.13;;
55545;SDS011;44768;50.298;127.520;2023-03-03T06:04:45;6.88;;;4.05;;
55545;SDS011;44768;50.298;127.520;2023-03-03T06:09:46;6.53;;;4.40;;
55545;SDS011;44768;50.298;127.520;2023-03-03T06:14:47;5.47;;;3.63;;
55545;SDS011;44768;50.298;127.520;2023-03-03T06:19:49;7.80;;;3.97;;
55545;SDS011;44768;50.298;127.520;2023-03-03T06:24:50;4.97;;;3.67;;
55545;SDS011;44768;50.298;127.520;2023-03-03T06:29:52;6.13;;;3.75;;
55545;SDS011;44768;50.298;127.520;2023-03-03T06:34:54;8.98;;;4.00;;
55545;SDS011;44768;50.298;127.520;2023-03-03T06:39:55;5.53;;;3.83;;
55545;SDS011;44768;50.298;127.520;2023-03-03T06:44:56;6.55;;;3.63;;
55545;SDS011;44768;50.298;127.520;2023-03-03T06:49:57;4.63;;;3.47;;
55545;SDS011;44768;50.298;127.520;2023-03-03T06:54:59;6.22;;;3.40;;
55545;SDS011;44768;50.298;127.520;2023-03-03T07:00:13;8.80;;;3.60;;
55545;SDS011;44768;50.298;127.520;2023-03-03T07:05:15;5.75;;;3.42;;
55545;SDS011;44768;50.298;127.520;2023-03-03T07:10:26;4.97;;;3.20;;
55545;SDS011;44768;50.298;127.520;2023-03-03T07:20:31;6.10;;;3.17;;
55545;SDS011;44768;50.298;127.520;2023-03-03T07:25:33;4.90;;;2.78;;
55545;SDS011;44768;50.298;127.520;2023-03-03T07:30:38;10.43;;;3.08;;
55545;SDS011;44768;50.298;127.520;2023-03-03T07:35:41;6.40;;;3.00;;
55545;SDS011;44768;50.298;127.520;2023-03-03T07:40:47;6.50;;;2.53;;
55545;SDS011;44768;50.298;127.520;2023-03-03T07:45:48;4.63;;;2.92;;
55545;SDS011;44768;50.298;127.520;2023-03-03T07:50:51;6.30;;;2.65;;
55545;SDS011;44768;50.298;127.520;2023-03-03T07:55:53;5.45;;;2.60;;
55545;SDS011;44768;50.298;127.520;2023-03-03T08:11:29;8.50;;;2.95;;
55545;SDS011;44768;50.298;127.520;2023-03-03T08:16:34;7.03;;;3.10;;
55545;SDS011;44768;50.298;127.520;2023-03-03T08:21:37;9.15;;;3.38;;
55545;SDS011;44768;50.298;127.520;2023-03-03T08:26:38;13.00;;;3.95;;
55545;SDS011;44768;50.298;127.520;2023-03-03T08:31:40;7.00;;;4.32;;
55545;SDS011;44768;50.298;127.520;2023-03-03T08:36:41;11.90;;;5.30;;
55545;SDS011;44768;50.298;127.520;2023-03-03T08:41:42;9.13;;;4.70;;
55545;SDS011;44768;50.298;127.520;2023-03-03T08:46:44;9.52;;;4.82;;
55545;SDS011;44768;50.298;127.520;2023-03-03T08:51:45;7.80;;;4.55;;
55545;SDS011;44768;50.298;127.520;2023-03-03T08:56:47;8.02;;;4.65;;
55545;SDS011;44768;50.298;127.520;2023-03-03T09:01:48;10.48;;;4.55;;
55545;SDS011;44768;50.298;127.520;2023-03-03T09:06:49;11.60;;;4.43;;
55545;SDS011;44768;50.298;127.520;2023-03-03T09:11:52;7.75;;;4.38;;
55545;SDS011;44768;50.298;127.520;2023-03-03T09:16:55;11.25;;;4.75;;
55545;SDS011;44768;50.298;127.520;2023-03-03T09:21:58;11.48;;;4.50;;
55545;SDS011;44768;50.298;127.520;2023-03-03T09:27:01;9.38;;;5.47;;
55545;SDS011;44768;50.298;127.520;2023-03-03T09:32:25;10.88;;;4.95;;
55545;SDS011;44768;50.298;127.520;2023-03-03T09:37:33;8.23;;;4.68;;
55545;SDS011;44768;50.298;127.520;2023-03-03T10:03:31;11.80;;;7.90;;
55545;SDS011;44768;50.298;127.520;2023-03-03T10:18:52;24.90;;;14.27;;
55545;SDS011;44768;50.298;127.520;2023-03-03T10:44:59;42.33;;;21.08;;
55545;SDS011;44768;50.298;127.520;2023-03-03T11:05:41;33.20;;;19.73;;
55545;SDS011;44768;50.298;127.520;2023-03-03T11:36:31;27.92;;;16.35;;
55545;SDS011;44768;50.298;127.520;2023-03-03T11:41:38;33.83;;;16.25;;
55545;SDS011;44768;50.298;127.520;2023-03-03T11:51:46;38.60;;;17.98;;
55545;SDS011;44768;50.298;127.520;2023-03-03T11:56:49;30.88;;;18.63;;
55545;SDS011;44768;50.298;127.520;2023-03-03T12:01:56;37.28;;;19.98;;
55545;SDS011;44768;50.298;127.520;2023-03-03T12:13:15;31.63;;;17.75;;
55545;SDS011;44768;50.298;127.520;2023-03-03T12:28:04;34.22;;;19.02;;
55545;SDS011;44768;50.298;127.520;2023-03-03T12:33:10;30.27;;;18.63;;
55545;SDS011;44768;50.298;127.520;2023-03-03T13:04:33;37.65;;;19.52;;
55545;SDS011;44768;50.298;127.520;2023-03-03T13:14:48;45.83;;;19.48;;
55545;SDS011;44768;50.298;127.520;2023-03-03T13:25:03;40.65;;;19.05;;
55545;SDS011;44768;50.298;127.520;2023-03-03T13:45:26;28.80;;;18.55;;
55545;SDS011;44768;50.298;127.520;2023-03-03T13:50:46;33.30;;;18.80;;
55545;SDS011;44768;50.298;127.520;2023-03-03T14:01:16;30.15;;;18.27;;
55545;SDS011;44768;50.298;127.520;2023-03-03T14:06:26;29.83;;;17.40;;
55545;SDS011;44768;50.298;127.520;2023-03-03T14:26:56;29.30;;;18.00;;
55545;SDS011;44768;50.298;127.520;2023-03-03T14:32:02;28.10;;;17.58;;
55545;SDS011;44768;50.298;127.520;2023-03-03T14:37:34;32.60;;;19.05;;
55545;SDS011;44768;50.298;127.520;2023-03-03T14:47:52;29.65;;;18.80;;
55545;SDS011;44768;50.298;127.520;2023-03-03T14:53:10;32.47;;;18.27;;
55545;SDS011;44768;50.298;127.520;2023-03-03T14:58:39;25.63;;;17.45;;
55545;SDS011;44768;50.298;127.520;2023-03-03T15:03:48;28.85;;;18.48;;
55545;SDS011;44768;50.298;127.520;2023-03-03T15:14:03;29.30;;;19.08;;
55545;SDS011;44768;50.298;127.520;2023-03-03T15:39:52;28.98;;;17.67;;
55545;SDS011;44768;50.298;127.520;2023-03-03T15:45:14;28.65;;;17.92;;
55545;SDS011;44768;50.298;127.520;2023-03-03T15:50:23;26.60;;;17.10;;
55545;SDS011;44768;50.298;127.520;2023-03-03T16:00:41;30.02;;;17.05;;
55545;SDS011;44768;50.298;127.520;2023-03-03T16:16:33;25.83;;;16.27;;
55545;SDS011;44768;50.298;127.520;2023-03-03T16:31:52;23.10;;;16.53;;
55545;SDS011;44768;50.298;127.520;2023-03-03T16:42:22;25.60;;;16.90;;
55545;SDS011;44768;50.298;127.520;2023-03-03T16:52:33;22.90;;;15.98;;
55545;SDS011;44768;50.298;127.520;2023-03-03T16:57:49;23.58;;;16.17;;
55545;SDS011;44768;50.298;127.520;2023-03-03T17:08:03;24.52;;;16.48;;
55545;SDS011;44768;50.298;127.520;2023-03-03T17:13:12;23.83;;;15.80;;
55545;SDS011;44768;50.298;127.520;2023-03-03T17:48:58;25.30;;;16.40;;
55545;SDS011;44768;50.298;127.520;2023-03-03T17:59:26;25.45;;;17.10;;
55545;SDS011;44768;50.298;127.520;2023-03-03T18:09:49;23.13;;;15.93;;
55545;SDS011;44768;50.298;127.520;2023-03-03T18:25:20;23.27;;;15.68;;
55545;SDS011;44768;50.298;127.520;2023-03-03T18:30:23;22.80;;;15.52;;
55545;SDS011;44768;50.298;127.520;2023-03-03T18:35:41;23.90;;;16.15;;
55545;SDS011;44768;50.298;127.520;2023-03-03T18:56:46;21.15;;;14.98;;
55545;SDS011;44768;50.298;127.520;2023-03-03T19:11:55;23.27;;;15.95;;
55545;SDS011;44768;50.298;127.520;2023-03-03T19:17:40;22.83;;;14.80;;
55545;SDS011;44768;50.298;127.520;2023-03-03T19:22:23;23.35;;;15.57;;
55545;SDS011;44768;50.298;127.520;2023-03-03T19:27:33;21.70;;;14.23;;
55545;SDS011;44768;50.298;127.520;2023-03-03T19:43:21;21.73;;;14.45;;
55545;SDS011;44768;50.298;127.520;2023-03-03T19:58:54;19.60;;;13.50;;
55545;SDS011;44768;50.298;127.520;2023-03-03T20:10:05;21.13;;;14.02;;
55545;SDS011;44768;50.298;127.520;2023-03-03T20:14:44;21.08;;;13.95;;
55545;SDS011;44768;50.298;127.520;2023-03-03T20:20:06;21.17;;;13.90;;
55545;SDS011;44768;50.298;127.520;2023-03-03T20:30:30;23.92;;;14.48;;
55545;SDS011;44768;50.298;127.520;2023-03-03T20:46:10;20.52;;;13.50;;
55545;SDS011;44768;50.298;127.520;2023-03-03T20:51:17;19.00;;;14.07;;
55545;SDS011;44768;50.298;127.520;2023-03-03T20:56:35;20.25;;;13.32;;
55545;SDS011;44768;50.298;127.520;2023-03-03T21:06:46;19.27;;;13.18;;
55545;SDS011;44768;50.298;127.520;2023-03-03T21:11:47;23.25;;;14.10;;
55545;SDS011;44768;50.298;127.520;2023-03-03T21:16:49;24.30;;;14.20;;
55545;SDS011;44768;50.298;127.520;2023-03-03T21:21:50;28.23;;;13.93;;
55545;SDS011;44768;50.298;127.520;2023-03-03T21:31:58;21.85;;;14.18;;
55545;SDS011;44768;50.298;127.520;2023-03-03T21:37:00;17.05;;;12.88;;
55545;SDS011;44768;50.298;127.520;2023-03-03T21:42:37;17.00;;;12.50;;
55545;SDS011;44768;50.298;127.520;2023-03-03T21:47:26;19.80;;;12.63;;
55545;SDS011;44768;50.298;127.520;2023-03-03T21:52:27;18.58;;;12.68;;
55545;SDS011;44768;50.298;127.520;2023-03-03T21:57:29;18.33;;;12.27;;
55545;SDS011;44768;50.298;127.520;2023-03-03T22:02:30;21.50;;;14.50;;
55545;SDS011;44768;50.298;127.520;2023-03-03T22:07:32;21.35;;;13.13;;
55545;SDS011;44768;50.298;127.520;2023-03-03T22:12:33;19.58;;;12.13;;
55545;SDS011;44768;50.298;127.520;2023-03-03T22:17:35;15.20;;;11.60;;
55545;SDS011;44768;50.298;127.520;2023-03-03T22:22:36;18.25;;;11.05;;
55545;SDS011;44768;50.298;127.520;2023-03-03T22:27:38;17.50;;;10.85;;
55545;SDS011;44768;50.298;127.520;2023-03-03T22:32:39;14.77;;;10.25;;
55545;SDS011;44768;50.298;127.520;2023-03-03T22:37:40;18.98;;;11.13;;
55545;SDS011;44768;50.298;127.520;2023-03-03T22:42:41;16.60;;;9.88;;
55545;SDS011;44768;50.298;127.520;2023-03-03T22:47:43;27.30;;;11.25;;
55545;SDS011;44768;50.298;127.520;2023-03-03T22:52:44;16.45;;;10.27;;
55545;SDS011;44768;50.298;127.520;2023-03-03T22:57:46;19.50;;;10.20;;
55545;SDS011;44768;50.298;127.520;2023-03-03T23:02:48;18.02;;;10.45;;
55545;SDS011;44768;50.298;127.520;2023-03-03T23:07:49;18.08;;;10.00;;
55545;SDS011;44768;50.298;127.520;2023-03-03T23:12:50;15.93;;;9.80;;
55545;SDS011;44768;50.298;127.520;2023-03-03T23:17:51;13.43;;;9.50;;
55545;SDS011;44768;50.298;127.520;2023-03-03T23:22:52;13.95;;;9.18;;
55545;SDS011;44768;50.298;127.520;2023-03-03T23:27:54;18.83;;;9.90;;
55545;SDS011;44768;50.298;127.520;2023-03-03T23:32:56;13.48;;;8.88;;
55545;SDS011;44768;50.298;127.520;2023-03-03T23:37:58;14.10;;;9.82;;
55545;SDS011;44768;50.298;127.520;2023-03-03T23:42:59;20.05;;;10.50;;
55545;SDS011;44768;50.298;127.520;2023-03-03T23:48:00;26.77;;;15.13;;
55545;SDS011;44768;50.298;127.520;2023-03-03T23:53:02;29.08;;;10.95;;
55545;SDS011;44768;50.298;127.520;2023-03-03T23:58:04;33.78;;;13.93;;
